sensor_id;sensor_type;location;lat;lon;timestamp;temperature;humidity
75368;DHT22;63954;51.948;5.888;2022-12-18T00:01:15;-1.71;74.23
75368;DHT22;63954;51.948;5.888;2022-12-18T00:03:43;-1.74;74.15
75368;DHT22;63954;51.948;5.888;2022-12-18T00:06:12;-1.79;74.15
75368;DHT22;63954;51.948;5.888;2022-12-18T00:08:40;-1.82;74.23
75368;DHT22;63954;51.948;5.888;2022-12-18T00:11:11;-1.83;74.28
75368;DHT22;63954;51.948;5.888;2022-12-18T00:13:38;-1.82;74.20
75368;DHT22;63954;51.948;5.888;2022-12-18T00:16:07;-1.83;74.25
75368;DHT22;63954;51.948;5.888;2022-12-18T00:18:35;-1.85;74.20
75368;DHT22;63954;51.948;5.888;2022-12-18T00:21:05;-1.88;74.18
75368;DHT22;63954;51.948;5.888;2022-12-18T00:23:36;-1.90;74.21
75368;DHT22;63954;51.948;5.888;2022-12-18T00:26:06;-1.93;74.12
75368;DHT22;63954;51.948;5.888;2022-12-18T00:28:33;-1.93;74.13
75368;DHT22;63954;51.948;5.888;2022-12-18T00:31:01;-2.00;73.94
75368;DHT22;63954;51.948;5.888;2022-12-18T00:33:28;-2.06;73.99
75368;DHT22;63954;51.948;5.888;2022-12-18T00:36:00;-2.13;74.07
75368;DHT22;63954;51.948;5.888;2022-12-18T00:38:27;-2.18;74.06
75368;DHT22;63954;51.948;5.888;2022-12-18T00:40:56;-2.20;74.16
75368;DHT22;63954;51.948;5.888;2022-12-18T00:43:23;-2.23;74.12
75368;DHT22;63954;51.948;5.888;2022-12-18T00:45:49;-2.27;74.13
75368;DHT22;63954;51.948;5.888;2022-12-18T00:48:16;-2.31;74.09
75368;DHT22;63954;51.948;5.888;2022-12-18T00:50:44;-2.32;74.22
75368;DHT22;63954;51.948;5.888;2022-12-18T00:53:11;-2.30;74.23
75368;DHT22;63954;51.948;5.888;2022-12-18T00:55:39;-2.29;74.19
75368;DHT22;63954;51.948;5.888;2022-12-18T00:58:08;-2.30;74.12
75368;DHT22;63954;51.948;5.888;2022-12-18T01:00:36;-2.31;74.11
75368;DHT22;63954;51.948;5.888;2022-12-18T01:03:04;-2.33;74.11
75368;DHT22;63954;51.948;5.888;2022-12-18T01:05:32;-2.36;74.09
75368;DHT22;63954;51.948;5.888;2022-12-18T01:07:59;-2.38;74.14
75368;DHT22;63954;51.948;5.888;2022-12-18T01:10:26;-2.39;74.06
75368;DHT22;63954;51.948;5.888;2022-12-18T01:12:57;-2.41;74.05
75368;DHT22;63954;51.948;5.888;2022-12-18T01:15:25;-2.43;73.99
75368;DHT22;63954;51.948;5.888;2022-12-18T01:17:53;-2.47;73.96
75368;DHT22;63954;51.948;5.888;2022-12-18T01:20:20;-2.49;74.15
75368;DHT22;63954;51.948;5.888;2022-12-18T01:22:47;-2.46;74.10
75368;DHT22;63954;51.948;5.888;2022-12-18T01:25:14;-2.44;74.15
75368;DHT22;63954;51.948;5.888;2022-12-18T01:27:43;-2.43;74.03
75368;DHT22;63954;51.948;5.888;2022-12-18T01:30:11;-2.44;73.95
75368;DHT22;63954;51.948;5.888;2022-12-18T01:32:39;-2.46;74.04
75368;DHT22;63954;51.948;5.888;2022-12-18T01:35:07;-2.46;73.99
75368;DHT22;63954;51.948;5.888;2022-12-18T01:37:35;-2.49;73.88
75368;DHT22;63954;51.948;5.888;2022-12-18T01:40:02;-2.50;73.90
75368;DHT22;63954;51.948;5.888;2022-12-18T01:42:30;-2.50;73.93
75368;DHT22;63954;51.948;5.888;2022-12-18T01:45:03;-2.51;73.86
75368;DHT22;63954;51.948;5.888;2022-12-18T01:47:41;-2.54;73.78
75368;DHT22;63954;51.948;5.888;2022-12-18T01:50:13;-2.57;73.79
75368;DHT22;63954;51.948;5.888;2022-12-18T01:52:41;-2.61;73.78
75368;DHT22;63954;51.948;5.888;2022-12-18T01:55:09;-2.62;73.77
75368;DHT22;63954;51.948;5.888;2022-12-18T01:57:38;-2.63;73.84
75368;DHT22;63954;51.948;5.888;2022-12-18T02:00:09;-2.63;73.91
75368;DHT22;63954;51.948;5.888;2022-12-18T02:02:43;-2.62;74.02
75368;DHT22;63954;51.948;5.888;2022-12-18T02:05:15;-2.61;73.86
75368;DHT22;63954;51.948;5.888;2022-12-18T02:07:54;-2.60;73.96
75368;DHT22;63954;51.948;5.888;2022-12-18T02:10:27;-2.61;73.80
75368;DHT22;63954;51.948;5.888;2022-12-18T02:13:01;-2.62;73.79
75368;DHT22;63954;51.948;5.888;2022-12-18T02:15:36;-2.64;73.51
75368;DHT22;63954;51.948;5.888;2022-12-18T02:18:11;-2.72;73.49
75368;DHT22;63954;51.948;5.888;2022-12-18T02:20:46;-2.74;73.60
75368;DHT22;63954;51.948;5.888;2022-12-18T02:23:24;-2.76;73.52
75368;DHT22;63954;51.948;5.888;2022-12-18T02:26:04;-2.83;73.51
75368;DHT22;63954;51.948;5.888;2022-12-18T02:28:40;-2.88;73.53
75368;DHT22;63954;51.948;5.888;2022-12-18T02:31:13;-2.88;73.59
75368;DHT22;63954;51.948;5.888;2022-12-18T02:33:43;-2.88;73.55
75368;DHT22;63954;51.948;5.888;2022-12-18T02:36:13;-2.86;73.63
75368;DHT22;63954;51.948;5.888;2022-12-18T02:38:43;-2.86;73.49
75368;DHT22;63954;51.948;5.888;2022-12-18T02:41:15;-2.87;73.45
75368;DHT22;63954;51.948;5.888;2022-12-18T02:43:52;-2.89;73.41
75368;DHT22;63954;51.948;5.888;2022-12-18T02:46:27;-2.92;73.42
75368;DHT22;63954;51.948;5.888;2022-12-18T02:49:05;-2.94;73.36
75368;DHT22;63954;51.948;5.888;2022-12-18T02:51:39;-2.95;73.41
75368;DHT22;63954;51.948;5.888;2022-12-18T02:54:20;-2.96;73.20
75368;DHT22;63954;51.948;5.888;2022-12-18T02:56:55;-3.01;73.22
75368;DHT22;63954;51.948;5.888;2022-12-18T02:59:31;-3.04;73.38
75368;DHT22;63954;51.948;5.888;2022-12-18T03:02:01;-3.02;73.43
75368;DHT22;63954;51.948;5.888;2022-12-18T03:04:35;-3.00;73.41
75368;DHT22;63954;51.948;5.888;2022-12-18T03:07:10;-3.02;73.28
75368;DHT22;63954;51.948;5.888;2022-12-18T03:09:42;-3.02;73.35
75368;DHT22;63954;51.948;5.888;2022-12-18T03:12:14;-3.05;73.33
75368;DHT22;63954;51.948;5.888;2022-12-18T03:15:00;-3.05;73.44
75368;DHT22;63954;51.948;5.888;2022-12-18T03:17:31;-3.05;73.32
75368;DHT22;63954;51.948;5.888;2022-12-18T03:20:03;-3.05;73.46
75368;DHT22;63954;51.948;5.888;2022-12-18T03:22:33;-3.04;73.41
75368;DHT22;63954;51.948;5.888;2022-12-18T03:25:06;-3.06;73.43
75368;DHT22;63954;51.948;5.888;2022-12-18T03:27:40;-3.05;73.45
75368;DHT22;63954;51.948;5.888;2022-12-18T03:30:14;-3.05;73.37
75368;DHT22;63954;51.948;5.888;2022-12-18T03:32:47;-3.08;73.38
75368;DHT22;63954;51.948;5.888;2022-12-18T03:35:18;-3.08;73.44
75368;DHT22;63954;51.948;5.888;2022-12-18T03:37:48;-3.09;73.33
75368;DHT22;63954;51.948;5.888;2022-12-18T03:40:16;-3.09;73.50
75368;DHT22;63954;51.948;5.888;2022-12-18T03:42:47;-3.09;73.40
75368;DHT22;63954;51.948;5.888;2022-12-18T03:45:21;-3.11;73.30
75368;DHT22;63954;51.948;5.888;2022-12-18T03:47:58;-3.12;73.23
75368;DHT22;63954;51.948;5.888;2022-12-18T03:50:37;-3.12;73.28
75368;DHT22;63954;51.948;5.888;2022-12-18T03:53:16;-3.13;73.15
75368;DHT22;63954;51.948;5.888;2022-12-18T03:55:48;-3.18;73.12
75368;DHT22;63954;51.948;5.888;2022-12-18T03:58:20;-3.21;73.19
75368;DHT22;63954;51.948;5.888;2022-12-18T04:01:00;-3.21;73.27
75368;DHT22;63954;51.948;5.888;2022-12-18T04:03:29;-3.24;73.27
75368;DHT22;63954;51.948;5.888;2022-12-18T04:05:59;-3.25;73.32
75368;DHT22;63954;51.948;5.888;2022-12-18T04:08:28;-3.27;73.24
75368;DHT22;63954;51.948;5.888;2022-12-18T04:11:05;-3.27;73.24
75368;DHT22;63954;51.948;5.888;2022-12-18T04:13:36;-3.27;73.10
75368;DHT22;63954;51.948;5.888;2022-12-18T04:16:08;-3.31;73.19
75368;DHT22;63954;51.948;5.888;2022-12-18T04:18:39;-3.31;73.34
75368;DHT22;63954;51.948;5.888;2022-12-18T04:21:07;-3.28;73.32
75368;DHT22;63954;51.948;5.888;2022-12-18T04:23:34;-3.26;73.19
75368;DHT22;63954;51.948;5.888;2022-12-18T04:26:02;-3.28;73.16
75368;DHT22;63954;51.948;5.888;2022-12-18T04:28:45;-3.31;73.15
75368;DHT22;63954;51.948;5.888;2022-12-18T04:31:13;-3.30;73.19
75368;DHT22;63954;51.948;5.888;2022-12-18T04:33:40;-3.33;73.08
75368;DHT22;63954;51.948;5.888;2022-12-18T04:36:08;-3.37;73.15
75368;DHT22;63954;51.948;5.888;2022-12-18T04:38:35;-3.39;73.11
75368;DHT22;63954;51.948;5.888;2022-12-18T04:41:07;-3.41;73.17
75368;DHT22;63954;51.948;5.888;2022-12-18T04:43:35;-3.43;73.20
75368;DHT22;63954;51.948;5.888;2022-12-18T04:46:04;-3.43;73.20
75368;DHT22;63954;51.948;5.888;2022-12-18T04:48:33;-3.43;73.24
75368;DHT22;63954;51.948;5.888;2022-12-18T04:51:02;-3.41;73.33
75368;DHT22;63954;51.948;5.888;2022-12-18T04:53:29;-3.37;73.28
75368;DHT22;63954;51.948;5.888;2022-12-18T04:56:04;-3.35;73.21
75368;DHT22;63954;51.948;5.888;2022-12-18T04:58:32;-3.35;73.24
75368;DHT22;63954;51.948;5.888;2022-12-18T05:00:59;-3.34;73.32
75368;DHT22;63954;51.948;5.888;2022-12-18T05:03:27;-3.32;73.26
75368;DHT22;63954;51.948;5.888;2022-12-18T05:05:56;-3.35;73.12
75368;DHT22;63954;51.948;5.888;2022-12-18T05:08:23;-3.35;73.19
75368;DHT22;63954;51.948;5.888;2022-12-18T05:10:58;-3.35;73.26
75368;DHT22;63954;51.948;5.888;2022-12-18T05:13:25;-3.33;73.25
75368;DHT22;63954;51.948;5.888;2022-12-18T05:15:52;-3.32;73.21
75368;DHT22;63954;51.948;5.888;2022-12-18T05:18:19;-3.32;73.33
75368;DHT22;63954;51.948;5.888;2022-12-18T05:20:49;-3.31;73.32
75368;DHT22;63954;51.948;5.888;2022-12-18T05:23:16;-3.31;73.39
75368;DHT22;63954;51.948;5.888;2022-12-18T05:25:47;-3.30;73.33
75368;DHT22;63954;51.948;5.888;2022-12-18T05:28:14;-3.30;73.37
75368;DHT22;63954;51.948;5.888;2022-12-18T05:30:41;-3.28;73.39
75368;DHT22;63954;51.948;5.888;2022-12-18T05:33:08;-3.28;73.38
75368;DHT22;63954;51.948;5.888;2022-12-18T05:35:37;-3.30;73.32
75368;DHT22;63954;51.948;5.888;2022-12-18T05:38:05;-3.31;73.22
75368;DHT22;63954;51.948;5.888;2022-12-18T05:40:33;-3.31;73.32
75368;DHT22;63954;51.948;5.888;2022-12-18T05:43:00;-3.32;73.19
75368;DHT22;63954;51.948;5.888;2022-12-18T05:45:27;-3.36;73.03
75368;DHT22;63954;51.948;5.888;2022-12-18T05:47:54;-3.37;73.13
75368;DHT22;63954;51.948;5.888;2022-12-18T05:50:21;-3.38;73.19
75368;DHT22;63954;51.948;5.888;2022-12-18T05:52:48;-3.38;73.09
75368;DHT22;63954;51.948;5.888;2022-12-18T05:55:17;-3.38;73.12
75368;DHT22;63954;51.948;5.888;2022-12-18T05:57:44;-3.36;73.19
75368;DHT22;63954;51.948;5.888;2022-12-18T06:00:12;-3.36;73.09
75368;DHT22;63954;51.948;5.888;2022-12-18T06:02:40;-3.33;73.07
75368;DHT22;63954;51.948;5.888;2022-12-18T06:05:07;-3.31;73.02
75368;DHT22;63954;51.948;5.888;2022-12-18T06:07:34;-3.32;73.03
75368;DHT22;63954;51.948;5.888;2022-12-18T06:10:02;-3.32;73.01
75368;DHT22;63954;51.948;5.888;2022-12-18T06:12:31;-3.30;72.98
75368;DHT22;63954;51.948;5.888;2022-12-18T06:14:59;-3.28;73.07
75368;DHT22;63954;51.948;5.888;2022-12-18T06:17:27;-3.30;73.09
75368;DHT22;63954;51.948;5.888;2022-12-18T06:19:55;-3.30;72.99
75368;DHT22;63954;51.948;5.888;2022-12-18T06:22:22;-3.27;73.01
75368;DHT22;63954;51.948;5.888;2022-12-18T06:24:49;-3.27;73.00
75368;DHT22;63954;51.948;5.888;2022-12-18T06:27:17;-3.27;72.99
75368;DHT22;63954;51.948;5.888;2022-12-18T06:29:45;-3.27;73.02
75368;DHT22;63954;51.948;5.888;2022-12-18T06:32:13;-3.28;72.85
75368;DHT22;63954;51.948;5.888;2022-12-18T06:34:40;-3.33;72.96
75368;DHT22;63954;51.948;5.888;2022-12-18T06:37:07;-3.34;73.04
75368;DHT22;63954;51.948;5.888;2022-12-18T06:39:35;-3.32;73.02
75368;DHT22;63954;51.948;5.888;2022-12-18T06:42:02;-3.33;72.99
75368;DHT22;63954;51.948;5.888;2022-12-18T06:44:30;-3.30;73.05
75368;DHT22;63954;51.948;5.888;2022-12-18T06:46:59;-3.28;72.96
75368;DHT22;63954;51.948;5.888;2022-12-18T06:49:27;-3.27;72.93
75368;DHT22;63954;51.948;5.888;2022-12-18T06:51:54;-3.30;72.94
75368;DHT22;63954;51.948;5.888;2022-12-18T06:54:21;-3.30;72.95
75368;DHT22;63954;51.948;5.888;2022-12-18T06:56:48;-3.30;72.96
75368;DHT22;63954;51.948;5.888;2022-12-18T06:59:15;-3.30;72.83
75368;DHT22;63954;51.948;5.888;2022-12-18T07:01:43;-3.32;73.00
75368;DHT22;63954;51.948;5.888;2022-12-18T07:04:11;-3.33;73.06
75368;DHT22;63954;51.948;5.888;2022-12-18T07:06:39;-3.31;73.01
75368;DHT22;63954;51.948;5.888;2022-12-18T07:09:09;-3.31;73.03
75368;DHT22;63954;51.948;5.888;2022-12-18T07:11:36;-3.30;72.96
75368;DHT22;63954;51.948;5.888;2022-12-18T07:14:03;-3.30;72.94
75368;DHT22;63954;51.948;5.888;2022-12-18T07:16:30;-3.30;72.89
75368;DHT22;63954;51.948;5.888;2022-12-18T07:18:57;-3.28;72.89
75368;DHT22;63954;51.948;5.888;2022-12-18T07:21:35;-3.27;72.87
75368;DHT22;63954;51.948;5.888;2022-12-18T07:24:03;-3.25;72.85
75368;DHT22;63954;51.948;5.888;2022-12-18T07:26:30;-3.23;72.85
75368;DHT22;63954;51.948;5.888;2022-12-18T07:28:57;-3.21;72.84
75368;DHT22;63954;51.948;5.888;2022-12-18T07:31:25;-3.19;72.90
75368;DHT22;63954;51.948;5.888;2022-12-18T07:33:53;-3.16;72.87
75368;DHT22;63954;51.948;5.888;2022-12-18T07:36:23;-3.16;72.79
75368;DHT22;63954;51.948;5.888;2022-12-18T07:38:51;-3.12;72.83
75368;DHT22;63954;51.948;5.888;2022-12-18T07:41:18;-3.11;72.75
75368;DHT22;63954;51.948;5.888;2022-12-18T07:43:46;-3.10;72.80
75368;DHT22;63954;51.948;5.888;2022-12-18T07:46:14;-3.08;72.84
75368;DHT22;63954;51.948;5.888;2022-12-18T07:48:41;-3.08;72.67
75368;DHT22;63954;51.948;5.888;2022-12-18T07:51:09;-3.09;72.88
75368;DHT22;63954;51.948;5.888;2022-12-18T07:53:42;-3.05;72.87
75368;DHT22;63954;51.948;5.888;2022-12-18T07:56:14;-3.04;72.80
75368;DHT22;63954;51.948;5.888;2022-12-18T07:58:43;-3.03;72.83
75368;DHT22;63954;51.948;5.888;2022-12-18T08:01:14;-3.01;72.88
75368;DHT22;63954;51.948;5.888;2022-12-18T08:03:44;-2.96;72.88
75368;DHT22;63954;51.948;5.888;2022-12-18T08:06:14;-2.92;72.90
75368;DHT22;63954;51.948;5.888;2022-12-18T08:11:43;-2.80;72.74
75368;DHT22;63954;51.948;5.888;2022-12-18T08:17:30;-2.73;72.79
75368;DHT22;63954;51.948;5.888;2022-12-18T08:19:57;-2.69;72.82
75368;DHT22;63954;51.948;5.888;2022-12-18T08:22:27;-2.66;72.64
75368;DHT22;63954;51.948;5.888;2022-12-18T08:24:54;-2.62;72.60
75368;DHT22;63954;51.948;5.888;2022-12-18T08:27:23;-2.59;72.72
75368;DHT22;63954;51.948;5.888;2022-12-18T08:29:50;-2.53;72.75
75368;DHT22;63954;51.948;5.888;2022-12-18T08:32:17;-2.46;72.80
75368;DHT22;63954;51.948;5.888;2022-12-18T08:38:32;-2.29;72.98
75368;DHT22;63954;51.948;5.888;2022-12-18T08:41:16;-2.18;72.95
75368;DHT22;63954;51.948;5.888;2022-12-18T08:43:49;-2.08;72.84
75368;DHT22;63954;51.948;5.888;2022-12-18T08:46:35;-1.98;72.84
75368;DHT22;63954;51.948;5.888;2022-12-18T08:49:04;-1.87;72.79
75368;DHT22;63954;51.948;5.888;2022-12-18T08:51:32;-1.78;72.76
75368;DHT22;63954;51.948;5.888;2022-12-18T08:53:59;-1.70;72.74
75368;DHT22;63954;51.948;5.888;2022-12-18T08:56:27;-1.62;72.74
75368;DHT22;63954;51.948;5.888;2022-12-18T08:59:22;-1.54;72.66
75368;DHT22;63954;51.948;5.888;2022-12-18T09:01:52;-1.48;72.57
75368;DHT22;63954;51.948;5.888;2022-12-18T09:04:20;-1.43;72.46
75368;DHT22;63954;51.948;5.888;2022-12-18T09:06:59;-1.35;72.41
75368;DHT22;63954;51.948;5.888;2022-12-18T09:09:40;-1.27;72.35
75368;DHT22;63954;51.948;5.888;2022-12-18T09:12:22;-1.20;72.32
75368;DHT22;63954;51.948;5.888;2022-12-18T09:15:05;-1.15;71.96
75368;DHT22;63954;51.948;5.888;2022-12-18T09:17:52;-1.08;71.97
75368;DHT22;63954;51.948;5.888;2022-12-18T09:20:32;-1.00;71.90
75368;DHT22;63954;51.948;5.888;2022-12-18T09:23:30;-0.95;71.42
75368;DHT22;63954;51.948;5.888;2022-12-18T09:26:15;-0.85;71.64
75368;DHT22;63954;51.948;5.888;2022-12-18T09:28:46;-0.79;71.48
75368;DHT22;63954;51.948;5.888;2022-12-18T09:34:22;-0.62;71.22
75368;DHT22;63954;51.948;5.888;2022-12-18T09:36:50;-0.56;71.10
75368;DHT22;63954;51.948;5.888;2022-12-18T09:39:18;-0.52;70.87
75368;DHT22;63954;51.948;5.888;2022-12-18T09:41:47;-0.46;70.71
75368;DHT22;63954;51.948;5.888;2022-12-18T09:44:23;-0.40;70.54
75368;DHT22;63954;51.948;5.888;2022-12-18T09:47:01;-0.37;69.79
75368;DHT22;63954;51.948;5.888;2022-12-18T09:49:34;-0.30;70.14
75368;DHT22;63954;51.948;5.888;2022-12-18T09:52:09;-0.24;70.08
75368;DHT22;63954;51.948;5.888;2022-12-18T09:54:39;-0.19;69.93
75368;DHT22;63954;51.948;5.888;2022-12-18T09:57:14;-0.13;69.81
75368;DHT22;63954;51.948;5.888;2022-12-18T09:59:44;-0.09;69.77
75368;DHT22;63954;51.948;5.888;2022-12-18T10:02:20;-0.05;68.97
75368;DHT22;63954;51.948;5.888;2022-12-18T10:05:03;-0.01;69.23
75368;DHT22;63954;51.948;5.888;2022-12-18T10:07:38;0.03;69.23
75368;DHT22;63954;51.948;5.888;2022-12-18T10:10:23;0.09;69.21
75368;DHT22;63954;51.948;5.888;2022-12-18T10:12:59;0.16;69.16
75368;DHT22;63954;51.948;5.888;2022-12-18T10:15:34;0.18;69.08
75368;DHT22;63954;51.948;5.888;2022-12-18T10:18:16;0.24;68.94
75368;DHT22;63954;51.948;5.888;2022-12-18T10:20:49;0.33;68.64
75368;DHT22;63954;51.948;5.888;2022-12-18T10:23:24;0.38;68.36
75368;DHT22;63954;51.948;5.888;2022-12-18T10:25:55;0.44;68.20
75368;DHT22;63954;51.948;5.888;2022-12-18T10:28:29;0.47;68.12
75368;DHT22;63954;51.948;5.888;2022-12-18T10:30:59;0.51;68.07
75368;DHT22;63954;51.948;5.888;2022-12-18T10:33:30;0.58;68.06
75368;DHT22;63954;51.948;5.888;2022-12-18T10:35:59;0.62;67.86
75368;DHT22;63954;51.948;5.888;2022-12-18T10:38:28;0.66;67.77
75368;DHT22;63954;51.948;5.888;2022-12-18T10:40:58;0.71;67.74
75368;DHT22;63954;51.948;5.888;2022-12-18T10:43:28;0.76;67.62
75368;DHT22;63954;51.948;5.888;2022-12-18T10:48:52;0.83;67.32
75368;DHT22;63954;51.948;5.888;2022-12-18T10:51:24;0.89;67.24
75368;DHT22;63954;51.948;5.888;2022-12-18T10:53:54;0.93;67.25
75368;DHT22;63954;51.948;5.888;2022-12-18T10:56:24;0.99;67.20
75368;DHT22;63954;51.948;5.888;2022-12-18T10:58:57;1.03;66.94
75368;DHT22;63954;51.948;5.888;2022-12-18T11:01:25;1.07;66.99
75368;DHT22;63954;51.948;5.888;2022-12-18T11:04:07;1.11;66.85
75368;DHT22;63954;51.948;5.888;2022-12-18T11:06:52;1.18;66.58
75368;DHT22;63954;51.948;5.888;2022-12-18T11:09:21;1.21;66.81
75368;DHT22;63954;51.948;5.888;2022-12-18T11:11:49;1.24;66.61
75368;DHT22;63954;51.948;5.888;2022-12-18T11:14:22;1.27;66.49
75368;DHT22;63954;51.948;5.888;2022-12-18T11:16:50;1.28;66.49
75368;DHT22;63954;51.948;5.888;2022-12-18T11:19:28;1.32;66.25
75368;DHT22;63954;51.948;5.888;2022-12-18T11:21:58;1.35;66.31
75368;DHT22;63954;51.948;5.888;2022-12-18T11:24:29;1.37;66.14
75368;DHT22;63954;51.948;5.888;2022-12-18T11:26:58;1.40;66.20
75368;DHT22;63954;51.948;5.888;2022-12-18T11:29:32;1.43;65.91
75368;DHT22;63954;51.948;5.888;2022-12-18T11:33:52;1.45;65.80
75368;DHT22;63954;51.948;5.888;2022-12-18T11:36:21;1.43;65.61
75368;DHT22;63954;51.948;5.888;2022-12-18T11:38:52;1.43;65.64
75368;DHT22;63954;51.948;5.888;2022-12-18T11:41:25;1.43;65.50
75368;DHT22;63954;51.948;5.888;2022-12-18T11:44:18;1.47;65.68
75368;DHT22;63954;51.948;5.888;2022-12-18T11:46:51;1.50;65.64
75368;DHT22;63954;51.948;5.888;2022-12-18T11:49:24;1.53;65.35
75368;DHT22;63954;51.948;5.888;2022-12-18T11:51:58;1.54;65.30
75368;DHT22;63954;51.948;5.888;2022-12-18T11:54:27;1.58;65.38
75368;DHT22;63954;51.948;5.888;2022-12-18T11:56:57;1.57;65.04
75368;DHT22;63954;51.948;5.888;2022-12-18T11:59:32;1.60;65.21
75368;DHT22;63954;51.948;5.888;2022-12-18T12:02:19;1.64;65.04
75368;DHT22;63954;51.948;5.888;2022-12-18T12:05:00;1.66;65.16
75368;DHT22;63954;51.948;5.888;2022-12-18T12:07:40;1.68;64.86
75368;DHT22;63954;51.948;5.888;2022-12-18T12:10:20;1.68;64.93
75368;DHT22;63954;51.948;5.888;2022-12-18T12:13:04;1.70;64.89
75368;DHT22;63954;51.948;5.888;2022-12-18T12:15:42;1.73;64.82
75368;DHT22;63954;51.948;5.888;2022-12-18T12:18:22;1.73;64.66
75368;DHT22;63954;51.948;5.888;2022-12-18T12:20:59;1.73;64.32
75368;DHT22;63954;51.948;5.888;2022-12-18T12:23:35;1.76;64.56
75368;DHT22;63954;51.948;5.888;2022-12-18T12:26:06;1.78;64.49
75368;DHT22;63954;51.948;5.888;2022-12-18T12:29:00;1.82;63.34
75368;DHT22;63954;51.948;5.888;2022-12-18T12:31:40;1.87;64.34
75368;DHT22;63954;51.948;5.888;2022-12-18T12:34:16;1.92;64.24
75368;DHT22;63954;51.948;5.888;2022-12-18T12:37:00;1.97;63.44
75368;DHT22;63954;51.948;5.888;2022-12-18T12:39:34;1.97;63.73
75368;DHT22;63954;51.948;5.888;2022-12-18T12:42:04;1.98;63.83
75368;DHT22;63954;51.948;5.888;2022-12-18T12:44:53;1.98;63.96
75368;DHT22;63954;51.948;5.888;2022-12-18T12:47:25;1.99;63.87
75368;DHT22;63954;51.948;5.888;2022-12-18T12:49:54;2.00;63.77
75368;DHT22;63954;51.948;5.888;2022-12-18T12:52:28;2.02;63.77
75368;DHT22;63954;51.948;5.888;2022-12-18T12:55:02;2.06;63.76
75368;DHT22;63954;51.948;5.888;2022-12-18T12:57:37;2.05;63.70
75368;DHT22;63954;51.948;5.888;2022-12-18T13:00:12;2.06;63.54
75368;DHT22;63954;51.948;5.888;2022-12-18T13:02:47;2.08;63.50
75368;DHT22;63954;51.948;5.888;2022-12-18T13:05:20;2.10;63.58
75368;DHT22;63954;51.948;5.888;2022-12-18T13:07:56;2.10;63.53
75368;DHT22;63954;51.948;5.888;2022-12-18T13:10:32;2.11;63.45
75368;DHT22;63954;51.948;5.888;2022-12-18T13:13:02;2.13;63.33
75368;DHT22;63954;51.948;5.888;2022-12-18T13:15:39;2.14;62.98
75368;DHT22;63954;51.948;5.888;2022-12-18T13:18:14;2.13;63.13
75368;DHT22;63954;51.948;5.888;2022-12-18T13:20:44;2.11;63.14
75368;DHT22;63954;51.948;5.888;2022-12-18T13:23:32;2.12;62.83
75368;DHT22;63954;51.948;5.888;2022-12-18T13:26:31;2.10;62.90
75368;DHT22;63954;51.948;5.888;2022-12-18T13:29:00;2.08;62.84
75368;DHT22;63954;51.948;5.888;2022-12-18T13:34:33;2.08;62.94
75368;DHT22;63954;51.948;5.888;2022-12-18T13:43:31;2.11;63.10
75368;DHT22;63954;51.948;5.888;2022-12-18T13:46:05;2.13;62.98
75368;DHT22;63954;51.948;5.888;2022-12-18T13:48:36;2.13;62.79
75368;DHT22;63954;51.948;5.888;2022-12-18T13:51:07;2.13;62.93
75368;DHT22;63954;51.948;5.888;2022-12-18T13:53:43;2.12;62.67
75368;DHT22;63954;51.948;5.888;2022-12-18T13:56:23;2.12;62.71
75368;DHT22;63954;51.948;5.888;2022-12-18T13:59:12;2.14;61.89
75368;DHT22;63954;51.948;5.888;2022-12-18T14:01:46;2.07;62.37
75368;DHT22;63954;51.948;5.888;2022-12-18T14:04:20;2.06;62.57
75368;DHT22;63954;51.948;5.888;2022-12-18T14:06:50;2.02;62.53
75368;DHT22;63954;51.948;5.888;2022-12-18T14:09:21;2.00;62.72
75368;DHT22;63954;51.948;5.888;2022-12-18T14:11:50;2.02;62.60
75368;DHT22;63954;51.948;5.888;2022-12-18T14:14:19;2.01;62.56
75368;DHT22;63954;51.948;5.888;2022-12-18T14:16:47;2.00;62.53
75368;DHT22;63954;51.948;5.888;2022-12-18T14:19:16;2.01;62.52
75368;DHT22;63954;51.948;5.888;2022-12-18T14:21:48;2.00;62.50
75368;DHT22;63954;51.948;5.888;2022-12-18T14:24:17;1.99;62.53
75368;DHT22;63954;51.948;5.888;2022-12-18T14:26:46;2.00;62.60
75368;DHT22;63954;51.948;5.888;2022-12-18T14:29:27;1.99;62.47
75368;DHT22;63954;51.948;5.888;2022-12-18T14:32:10;1.98;62.42
75368;DHT22;63954;51.948;5.888;2022-12-18T14:34:39;1.99;62.57
75368;DHT22;63954;51.948;5.888;2022-12-18T14:37:10;1.99;62.47
75368;DHT22;63954;51.948;5.888;2022-12-18T14:39:39;2.00;62.50
75368;DHT22;63954;51.948;5.888;2022-12-18T14:42:10;1.98;62.38
75368;DHT22;63954;51.948;5.888;2022-12-18T14:44:39;1.98;62.35
75368;DHT22;63954;51.948;5.888;2022-12-18T14:47:13;1.96;62.31
75368;DHT22;63954;51.948;5.888;2022-12-18T14:49:41;1.95;62.24
75368;DHT22;63954;51.948;5.888;2022-12-18T14:52:18;1.95;61.79
75368;DHT22;63954;51.948;5.888;2022-12-18T14:54:48;1.92;61.96
75368;DHT22;63954;51.948;5.888;2022-12-18T14:57:21;1.94;62.26
75368;DHT22;63954;51.948;5.888;2022-12-18T14:59:50;1.96;62.35
75368;DHT22;63954;51.948;5.888;2022-12-18T15:02:21;1.95;62.28
75368;DHT22;63954;51.948;5.888;2022-12-18T15:05:00;1.96;62.33
75368;DHT22;63954;51.948;5.888;2022-12-18T15:07:39;1.97;62.09
75368;DHT22;63954;51.948;5.888;2022-12-18T15:10:14;1.95;62.27
75368;DHT22;63954;51.948;5.888;2022-12-18T15:12:42;1.94;62.32
75368;DHT22;63954;51.948;5.888;2022-12-18T15:15:51;1.95;62.28
75368;DHT22;63954;51.948;5.888;2022-12-18T15:18:19;1.92;62.04
75368;DHT22;63954;51.948;5.888;2022-12-18T15:20:49;1.88;62.41
75368;DHT22;63954;51.948;5.888;2022-12-18T15:23:18;1.87;62.15
75368;DHT22;63954;51.948;5.888;2022-12-18T15:25:57;1.86;62.40
75368;DHT22;63954;51.948;5.888;2022-12-18T15:28:26;1.87;62.53
75368;DHT22;63954;51.948;5.888;2022-12-18T15:31:03;1.86;62.45
75368;DHT22;63954;51.948;5.888;2022-12-18T15:33:35;1.88;62.48
75368;DHT22;63954;51.948;5.888;2022-12-18T15:36:04;1.87;62.41
75368;DHT22;63954;51.948;5.888;2022-12-18T15:38:31;1.85;62.37
75368;DHT22;63954;51.948;5.888;2022-12-18T15:40:59;1.85;62.33
75368;DHT22;63954;51.948;5.888;2022-12-18T15:43:30;1.85;62.45
75368;DHT22;63954;51.948;5.888;2022-12-18T15:46:05;1.84;62.47
75368;DHT22;63954;51.948;5.888;2022-12-18T15:48:38;1.84;62.50
75368;DHT22;63954;51.948;5.888;2022-12-18T15:51:11;1.84;62.59
75368;DHT22;63954;51.948;5.888;2022-12-18T15:53:43;1.81;62.51
75368;DHT22;63954;51.948;5.888;2022-12-18T15:56:16;1.80;62.60
75368;DHT22;63954;51.948;5.888;2022-12-18T15:59:02;1.77;62.57
75368;DHT22;63954;51.948;5.888;2022-12-18T16:01:30;1.78;62.66
75368;DHT22;63954;51.948;5.888;2022-12-18T16:03:58;1.78;62.69
75368;DHT22;63954;51.948;5.888;2022-12-18T16:06:25;1.78;62.69
75368;DHT22;63954;51.948;5.888;2022-12-18T16:08:52;1.77;62.63
75368;DHT22;63954;51.948;5.888;2022-12-18T16:11:22;1.76;62.69
75368;DHT22;63954;51.948;5.888;2022-12-18T16:14:05;1.77;62.69
75368;DHT22;63954;51.948;5.888;2022-12-18T16:16:33;1.76;62.51
75368;DHT22;63954;51.948;5.888;2022-12-18T16:19:01;1.76;62.57
75368;DHT22;63954;51.948;5.888;2022-12-18T16:21:28;1.78;62.60
75368;DHT22;63954;51.948;5.888;2022-12-18T16:24:15;1.78;62.62
75368;DHT22;63954;51.948;5.888;2022-12-18T16:26:58;1.75;62.54
75368;DHT22;63954;51.948;5.888;2022-12-18T16:29:27;1.73;62.39
75368;DHT22;63954;51.948;5.888;2022-12-18T16:31:57;1.72;62.58
75368;DHT22;63954;51.948;5.888;2022-12-18T16:34:29;1.72;62.63